Kezdőlap
METAR-TAF:

METAR-TAF

Repülőterek :

Csungking, Kína

földrajzi szélesség: 29-31N, földrajzi hosszúság: 106-29E, magasság: 351 m

Jelenlegi meteorológiai megfigyelések

A jelentés 1 órával és 8 perccel ezelõtt készült, 12:00 UTC
Különbözõ irányokból fújó szél 2 kt
Hőmérséklet 15°C
Páratartalom 55%
Légköri nyomás 1019 hPa
Látótávolság 10 km, vagy több
felhőtlen 1500 m magasságban, és nincs gomolyfelhõ

METAR: ZUCK 251200Z VRB01MPS CAVOK 15/06 Q1019 NOSIG

Idő: 21:08 (13:08 UTC)

Előrejelzés

A jelentés 4 órával és 3 perccel ezelõtt készült, 09:05 UTC
Az előrejelzés 25-én 12 óra UTC és 26-én 12 óra UTC között érvényes
Dél-délkeleti szél 6 kt
Látótávolság: 5000 m
Szórványos felhőzet 4000 lábon
Párásság

TAF: ZUCK 250905Z 2512/2612 16003MPS 5000 BR SCT040 TX15/2608Z TN08/2522Z

Meteorológiai megfigyelések és előrejelzések több, mint 4000 repülőtéren (METAR és TAF jelentéseket).

A térképen piros és sárga pontok jelzik az elérhető meteorológiai állomásokat.

Mozgassa az egeret a pont fölött, hogy megjelenjen az állomás neve.

Azután kattintson az időjárási megfigyelések és előrejelzések megtekintéséhez.

A térkép megváltoztatása: kattintson a fekete keresztel jelölt zöld gombra ráközelítéshez, a vonallal jelölt zöld gombra távolításhoz, vagy a zöld nyilakra a szomszédos térképek eléréséhez.


METAR-TAF: